sensor_id;sensor_type;location;lat;lon;timestamp;P1;durP1;ratioP1;P2;durP2;ratioP2
31306;SDS011;17935;51.120;13.132;2023-10-09T02:46:16;5.63;;;3.08;;
31306;SDS011;17935;51.120;13.132;2023-10-09T02:48:44;4.40;;;3.40;;
31306;SDS011;17935;51.120;13.132;2023-10-09T02:51:19;5.35;;;2.88;;
31306;SDS011;17935;51.120;13.132;2023-10-09T02:56:23;5.25;;;3.10;;
31306;SDS011;17935;51.120;13.132;2023-10-09T02:58:55;5.28;;;2.90;;
31306;SDS011;17935;51.120;13.132;2023-10-09T03:01:37;5.30;;;3.20;;
31306;SDS011;17935;51.120;13.132;2023-10-09T03:04:04;6.45;;;3.00;;
31306;SDS011;17935;51.120;13.132;2023-10-09T03:06:36;6.93;;;2.90;;
31306;SDS011;17935;51.120;13.132;2023-10-09T05:38:04;10.48;;;5.53;;
31306;SDS011;17935;51.120;13.132;2023-10-09T05:40:54;11.50;;;6.40;;
31306;SDS011;17935;51.120;13.132;2023-10-09T05:43:40;10.88;;;5.10;;
31306;SDS011;17935;51.120;13.132;2023-10-09T05:46:26;7.20;;;5.20;;
31306;SDS011;17935;51.120;13.132;2023-10-09T05:49:00;9.10;;;5.03;;
31306;SDS011;17935;51.120;13.132;2023-10-09T05:51:34;9.43;;;5.25;;
31306;SDS011;17935;51.120;13.132;2023-10-09T05:57:02;11.90;;;7.82;;
31306;SDS011;17935;51.120;13.132;2023-10-09T05:59:46;15.90;;;7.80;;
31306;SDS011;17935;51.120;13.132;2023-10-09T06:02:33;13.82;;;7.38;;
31306;SDS011;17935;51.120;13.132;2023-10-09T06:05:17;15.77;;;8.52;;
31306;SDS011;17935;51.120;13.132;2023-10-09T06:08:02;15.38;;;8.68;;
31306;SDS011;17935;51.120;13.132;2023-10-09T06:10:31;13.15;;;7.75;;
31306;SDS011;17935;51.120;13.132;2023-10-09T06:13:07;23.45;;;8.77;;
31306;SDS011;17935;51.120;13.132;2023-10-09T06:15:58;18.05;;;8.02;;
31306;SDS011;17935;51.120;13.132;2023-10-09T06:19:13;16.35;;;9.80;;
31306;SDS011;17935;51.120;13.132;2023-10-09T06:21:44;18.55;;;9.88;;
31306;SDS011;17935;51.120;13.132;2023-10-09T06:24:29;20.75;;;10.68;;
31306;SDS011;17935;51.120;13.132;2023-10-09T06:27:20;26.35;;;12.10;;
31306;SDS011;17935;51.120;13.132;2023-10-09T06:35:16;23.60;;;13.23;;
31306;SDS011;17935;51.120;13.132;2023-10-09T06:37:50;29.10;;;12.85;;
31306;SDS011;17935;51.120;13.132;2023-10-09T06:43:15;27.02;;;14.10;;
31306;SDS011;17935;51.120;13.132;2023-10-09T06:45:56;22.52;;;12.88;;
31306;SDS011;17935;51.120;13.132;2023-10-09T06:48:46;26.88;;;12.60;;
31306;SDS011;17935;51.120;13.132;2023-10-09T06:51:28;23.98;;;12.70;;
31306;SDS011;17935;51.120;13.132;2023-10-09T06:53:56;22.15;;;12.23;;
31306;SDS011;17935;51.120;13.132;2023-10-09T07:10:21;25.30;;;13.25;;
31306;SDS011;17935;51.120;13.132;2023-10-09T07:13:00;30.27;;;15.27;;
31306;SDS011;17935;51.120;13.132;2023-10-09T07:15:31;25.90;;;14.05;;
31306;SDS011;17935;51.120;13.132;2023-10-09T07:18:18;33.90;;;14.25;;
31306;SDS011;17935;51.120;13.132;2023-10-09T07:20:48;39.67;;;15.27;;
31306;SDS011;17935;51.120;13.132;2023-10-09T07:23:39;34.78;;;14.55;;
31306;SDS011;17935;51.120;13.132;2023-10-09T07:26:13;42.13;;;16.13;;
31306;SDS011;17935;51.120;13.132;2023-10-09T07:29:18;27.88;;;14.00;;
31306;SDS011;17935;51.120;13.132;2023-10-09T07:31:53;23.20;;;13.60;;
31306;SDS011;17935;51.120;13.132;2023-10-09T07:38:06;25.52;;;13.75;;
31306;SDS011;17935;51.120;13.132;2023-10-09T07:41:18;28.48;;;13.75;;
31306;SDS011;17935;51.120;13.132;2023-10-09T07:44:04;34.53;;;15.50;;
31306;SDS011;17935;51.120;13.132;2023-10-09T07:46:44;36.63;;;14.32;;
31306;SDS011;17935;51.120;13.132;2023-10-09T07:49:38;35.45;;;14.65;;
31306;SDS011;17935;51.120;13.132;2023-10-09T07:52:10;36.42;;;15.52;;
31306;SDS011;17935;51.120;13.132;2023-10-09T07:54:35;30.67;;;14.95;;
31306;SDS011;17935;51.120;13.132;2023-10-09T07:57:01;30.37;;;15.23;;
31306;SDS011;17935;51.120;13.132;2023-10-09T07:59:40;33.10;;;15.45;;
31306;SDS011;17935;51.120;13.132;2023-10-09T08:02:27;30.23;;;14.90;;
31306;SDS011;17935;51.120;13.132;2023-10-09T08:04:59;36.15;;;15.05;;
31306;SDS011;17935;51.120;13.132;2023-10-09T08:07:31;27.52;;;14.85;;
31306;SDS011;17935;51.120;13.132;2023-10-09T08:10:04;27.00;;;15.30;;
31306;SDS011;17935;51.120;13.132;2023-10-09T08:12:38;31.45;;;14.30;;
31306;SDS011;17935;51.120;13.132;2023-10-09T08:15:23;26.15;;;12.93;;
31306;SDS011;17935;51.120;13.132;2023-10-09T08:18:16;36.95;;;14.70;;
31306;SDS011;17935;51.120;13.132;2023-10-09T08:20:55;29.73;;;14.63;;
31306;SDS011;17935;51.120;13.132;2023-10-09T08:23:26;29.80;;;14.43;;
31306;SDS011;17935;51.120;13.132;2023-10-09T08:26:07;23.67;;;12.48;;
31306;SDS011;17935;51.120;13.132;2023-10-09T08:46:23;25.38;;;13.30;;
31306;SDS011;17935;51.120;13.132;2023-10-09T08:48:52;27.25;;;14.27;;
31306;SDS011;17935;51.120;13.132;2023-10-09T08:51:28;29.65;;;13.70;;
31306;SDS011;17935;51.120;13.132;2023-10-09T08:53:54;25.80;;;12.63;;
31306;SDS011;17935;51.120;13.132;2023-10-09T08:56:21;25.38;;;12.57;;
31306;SDS011;17935;51.120;13.132;2023-10-09T08:58:57;28.98;;;13.18;;
31306;SDS011;17935;51.120;13.132;2023-10-09T09:01:24;30.60;;;13.27;;
31306;SDS011;17935;51.120;13.132;2023-10-09T09:03:51;28.00;;;14.07;;
31306;SDS011;17935;51.120;13.132;2023-10-09T09:06:22;29.55;;;12.88;;
31306;SDS011;17935;51.120;13.132;2023-10-09T09:08:49;21.77;;;11.70;;
31306;SDS011;17935;51.120;13.132;2023-10-09T09:11:20;19.35;;;11.70;;
31306;SDS011;17935;51.120;13.132;2023-10-09T09:16:43;24.38;;;12.07;;
31306;SDS011;17935;51.120;13.132;2023-10-09T09:19:13;21.05;;;11.15;;
31306;SDS011;17935;51.120;13.132;2023-10-09T09:21:56;26.15;;;12.32;;
31306;SDS011;17935;51.120;13.132;2023-10-09T09:24:39;19.30;;;10.05;;
31306;SDS011;17935;51.120;13.132;2023-10-09T09:27:26;26.83;;;11.77;;
31306;SDS011;17935;51.120;13.132;2023-10-09T09:30:26;20.58;;;10.95;;
31306;SDS011;17935;51.120;13.132;2023-10-09T09:36:01;20.23;;;10.82;;
31306;SDS011;17935;51.120;13.132;2023-10-09T09:38:29;21.45;;;10.77;;
31306;SDS011;17935;51.120;13.132;2023-10-09T09:41:07;21.23;;;9.57;;
31306;SDS011;17935;51.120;13.132;2023-10-09T09:43:33;20.38;;;10.18;;
31306;SDS011;17935;51.120;13.132;2023-10-09T09:46:01;16.77;;;9.80;;
31306;SDS011;17935;51.120;13.132;2023-10-09T09:48:32;21.92;;;11.18;;
31306;SDS011;17935;51.120;13.132;2023-10-09T09:51:04;23.85;;;11.23;;
31306;SDS011;17935;51.120;13.132;2023-10-09T09:53:33;23.30;;;11.85;;
31306;SDS011;17935;51.120;13.132;2023-10-09T09:56:02;26.95;;;12.25;;
31306;SDS011;17935;51.120;13.132;2023-10-09T09:58:29;27.48;;;12.88;;
31306;SDS011;17935;51.120;13.132;2023-10-09T10:01:10;25.88;;;13.50;;
31306;SDS011;17935;51.120;13.132;2023-10-09T10:03:45;26.65;;;12.85;;
31306;SDS011;17935;51.120;13.132;2023-10-09T10:06:19;27.58;;;13.35;;
31306;SDS011;17935;51.120;13.132;2023-10-09T10:08:47;33.88;;;12.70;;
31306;SDS011;17935;51.120;13.132;2023-10-09T10:14:17;24.90;;;13.18;;
31306;SDS011;17935;51.120;13.132;2023-10-09T10:17:08;24.58;;;12.27;;
31306;SDS011;17935;51.120;13.132;2023-10-09T10:20:01;20.23;;;11.55;;
31306;SDS011;17935;51.120;13.132;2023-10-09T10:22:42;22.33;;;11.38;;
31306;SDS011;17935;51.120;13.132;2023-10-09T10:28:22;30.02;;;12.88;;
31306;SDS011;17935;51.120;13.132;2023-10-09T10:31:07;24.55;;;13.20;;
31306;SDS011;17935;51.120;13.132;2023-10-09T10:36:20;33.47;;;13.10;;
31306;SDS011;17935;51.120;13.132;2023-10-09T10:39:01;25.45;;;12.55;;
31306;SDS011;17935;51.120;13.132;2023-10-09T10:41:36;27.55;;;14.48;;
31306;SDS011;17935;51.120;13.132;2023-10-09T10:44:25;25.92;;;12.45;;
31306;SDS011;17935;51.120;13.132;2023-10-09T10:47:07;25.30;;;13.75;;
31306;SDS011;17935;51.120;13.132;2023-10-09T10:49:52;24.38;;;12.10;;
31306;SDS011;17935;51.120;13.132;2023-10-09T10:52:48;21.70;;;11.95;;
31306;SDS011;17935;51.120;13.132;2023-10-09T10:55:22;26.20;;;11.90;;
31306;SDS011;17935;51.120;13.132;2023-10-09T10:57:54;24.75;;;12.00;;
31306;SDS011;17935;51.120;13.132;2023-10-09T11:00:27;23.93;;;12.20;;
31306;SDS011;17935;51.120;13.132;2023-10-09T11:03:32;23.20;;;12.13;;
31306;SDS011;17935;51.120;13.132;2023-10-09T11:06:21;18.75;;;10.90;;
31306;SDS011;17935;51.120;13.132;2023-10-09T11:08:50;23.05;;;13.27;;
31306;SDS011;17935;51.120;13.132;2023-10-09T11:11:33;25.60;;;12.80;;
31306;SDS011;17935;51.120;13.132;2023-10-09T11:14:12;21.63;;;12.20;;
31306;SDS011;17935;51.120;13.132;2023-10-09T11:16:48;22.35;;;13.25;;
31306;SDS011;17935;51.120;13.132;2023-10-09T11:19:18;21.15;;;12.00;;
31306;SDS011;17935;51.120;13.132;2023-10-09T11:21:58;21.00;;;12.33;;
31306;SDS011;17935;51.120;13.132;2023-10-09T11:24:33;30.38;;;12.60;;
31306;SDS011;17935;51.120;13.132;2023-10-09T11:27:00;27.40;;;12.32;;
31306;SDS011;17935;51.120;13.132;2023-10-09T11:29:47;17.45;;;11.43;;
31306;SDS011;17935;51.120;13.132;2023-10-09T11:32:14;23.20;;;10.93;;
31306;SDS011;17935;51.120;13.132;2023-10-09T11:37:57;26.00;;;11.85;;
31306;SDS011;17935;51.120;13.132;2023-10-09T11:40:34;28.77;;;12.93;;
31306;SDS011;17935;51.120;13.132;2023-10-09T11:43:18;23.23;;;12.68;;
31306;SDS011;17935;51.120;13.132;2023-10-09T11:46:11;19.42;;;10.88;;
31306;SDS011;17935;51.120;13.132;2023-10-09T11:48:36;20.27;;;11.70;;
31306;SDS011;17935;51.120;13.132;2023-10-09T11:51:25;24.85;;;12.00;;
31306;SDS011;17935;51.120;13.132;2023-10-09T11:53:53;20.13;;;12.20;;
31306;SDS011;17935;51.120;13.132;2023-10-09T11:58:52;20.48;;;11.18;;
31306;SDS011;17935;51.120;13.132;2023-10-09T12:01:18;25.40;;;13.25;;
31306;SDS011;17935;51.120;13.132;2023-10-09T12:03:50;24.85;;;12.95;;
31306;SDS011;17935;51.120;13.132;2023-10-09T12:06:21;24.10;;;12.38;;
31306;SDS011;17935;51.120;13.132;2023-10-09T12:08:48;24.80;;;12.52;;
31306;SDS011;17935;51.120;13.132;2023-10-09T12:11:17;24.65;;;12.80;;
31306;SDS011;17935;51.120;13.132;2023-10-09T12:13:56;20.67;;;12.85;;
31306;SDS011;17935;51.120;13.132;2023-10-09T12:16:37;24.83;;;14.05;;
31306;SDS011;17935;51.120;13.132;2023-10-09T12:19:17;21.73;;;12.18;;
31306;SDS011;17935;51.120;13.132;2023-10-09T12:21:47;20.25;;;11.93;;
31306;SDS011;17935;51.120;13.132;2023-10-09T12:24:15;21.88;;;11.65;;
31306;SDS011;17935;51.120;13.132;2023-10-09T12:26:44;16.77;;;10.00;;
31306;SDS011;17935;51.120;13.132;2023-10-09T12:29:11;20.48;;;11.63;;
31306;SDS011;17935;51.120;13.132;2023-10-09T12:31:36;18.58;;;11.77;;
31306;SDS011;17935;51.120;13.132;2023-10-09T12:34:05;20.10;;;12.45;;
31306;SDS011;17935;51.120;13.132;2023-10-09T12:36:33;20.25;;;11.60;;
31306;SDS011;17935;51.120;13.132;2023-10-09T12:39:02;20.13;;;10.95;;
31306;SDS011;17935;51.120;13.132;2023-10-09T12:41:28;22.17;;;12.15;;
31306;SDS011;17935;51.120;13.132;2023-10-09T12:44:05;19.65;;;10.70;;
31306;SDS011;17935;51.120;13.132;2023-10-09T12:46:37;19.80;;;10.52;;
31306;SDS011;17935;51.120;13.132;2023-10-09T12:49:20;16.02;;;10.75;;
31306;SDS011;17935;51.120;13.132;2023-10-09T12:51:53;17.08;;;11.80;;
31306;SDS011;17935;51.120;13.132;2023-10-09T12:54:22;20.88;;;11.35;;
31306;SDS011;17935;51.120;13.132;2023-10-09T12:56:52;19.38;;;10.18;;
31306;SDS011;17935;51.120;13.132;2023-10-09T12:59:18;18.67;;;10.02;;
31306;SDS011;17935;51.120;13.132;2023-10-09T13:01:45;14.48;;;9.02;;
31306;SDS011;17935;51.120;13.132;2023-10-09T13:10:23;16.17;;;9.27;;
31306;SDS011;17935;51.120;13.132;2023-10-09T13:13:08;14.93;;;8.30;;
31306;SDS011;17935;51.120;13.132;2023-10-09T13:15:36;14.95;;;8.02;;
31306;SDS011;17935;51.120;13.132;2023-10-09T13:46:51;19.02;;;9.70;;
31306;SDS011;17935;51.120;13.132;2023-10-09T13:49:30;20.65;;;9.27;;
31306;SDS011;17935;51.120;13.132;2023-10-09T13:52:11;16.95;;;10.63;;
31306;SDS011;17935;51.120;13.132;2023-10-09T13:55:01;18.85;;;10.10;;
31306;SDS011;17935;51.120;13.132;2023-10-09T14:03:55;19.42;;;10.90;;
31306;SDS011;17935;51.120;13.132;2023-10-09T14:30:18;18.20;;;11.60;;
31306;SDS011;17935;51.120;13.132;2023-10-09T14:32:56;22.30;;;12.30;;
31306;SDS011;17935;51.120;13.132;2023-10-09T15:56:32;17.45;;;10.13;;
31306;SDS011;17935;51.120;13.132;2023-10-09T15:59:04;16.90;;;10.35;;
31306;SDS011;17935;51.120;13.132;2023-10-09T16:01:41;18.52;;;10.57;;
31306;SDS011;17935;51.120;13.132;2023-10-09T16:11:46;21.98;;;11.15;;
31306;SDS011;17935;51.120;13.132;2023-10-09T16:14:13;17.40;;;10.50;;
31306;SDS011;17935;51.120;13.132;2023-10-09T16:19:55;28.20;;;11.57;;
31306;SDS011;17935;51.120;13.132;2023-10-09T16:22:24;16.85;;;11.10;;
31306;SDS011;17935;51.120;13.132;2023-10-09T16:44:08;19.20;;;12.55;;
31306;SDS011;17935;51.120;13.132;2023-10-09T16:50:57;23.30;;;13.07;;
31306;SDS011;17935;51.120;13.132;2023-10-09T16:56:53;26.33;;;12.90;;
31306;SDS011;17935;51.120;13.132;2023-10-09T16:59:25;25.38;;;13.52;;
31306;SDS011;17935;51.120;13.132;2023-10-09T17:01:58;33.92;;;15.90;;
31306;SDS011;17935;51.120;13.132;2023-10-09T17:04:31;24.80;;;13.77;;
31306;SDS011;17935;51.120;13.132;2023-10-09T17:07:19;16.55;;;11.68;;
31306;SDS011;17935;51.120;13.132;2023-10-09T17:09:54;19.83;;;12.38;;
31306;SDS011;17935;51.120;13.132;2023-10-09T17:12:42;20.63;;;12.27;;
31306;SDS011;17935;51.120;13.132;2023-10-09T17:15:22;21.98;;;13.10;;
31306;SDS011;17935;51.120;13.132;2023-10-09T17:18:01;18.08;;;11.40;;
31306;SDS011;17935;51.120;13.132;2023-10-09T17:20:43;20.95;;;12.02;;
31306;SDS011;17935;51.120;13.132;2023-10-09T17:23:29;23.30;;;11.30;;
31306;SDS011;17935;51.120;13.132;2023-10-09T17:26:17;23.23;;;12.20;;
31306;SDS011;17935;51.120;13.132;2023-10-09T17:28:48;21.73;;;11.43;;
31306;SDS011;17935;51.120;13.132;2023-10-09T17:31:34;17.05;;;11.50;;
31306;SDS011;17935;51.120;13.132;2023-10-09T17:34:04;20.75;;;12.38;;
31306;SDS011;17935;51.120;13.132;2023-10-09T17:36:35;19.95;;;13.10;;
31306;SDS011;17935;51.120;13.132;2023-10-09T17:39:14;19.35;;;13.40;;
31306;SDS011;17935;51.120;13.132;2023-10-09T17:41:46;23.00;;;14.77;;
31306;SDS011;17935;51.120;13.132;2023-10-09T17:46:59;22.65;;;15.82;;
31306;SDS011;17935;51.120;13.132;2023-10-09T17:49:38;26.27;;;16.70;;
31306;SDS011;17935;51.120;13.132;2023-10-09T18:08:00;33.47;;;19.50;;
31306;SDS011;17935;51.120;13.132;2023-10-09T18:10:32;36.00;;;20.45;;
31306;SDS011;17935;51.120;13.132;2023-10-09T18:15:40;38.95;;;21.00;;
31306;SDS011;17935;51.120;13.132;2023-10-09T18:18:26;33.07;;;20.07;;
31306;SDS011;17935;51.120;13.132;2023-10-09T18:20:52;32.17;;;20.92;;
31306;SDS011;17935;51.120;13.132;2023-10-09T18:23:21;38.85;;;22.15;;
31306;SDS011;17935;51.120;13.132;2023-10-09T18:25:47;38.88;;;22.98;;
31306;SDS011;17935;51.120;13.132;2023-10-09T18:28:16;46.75;;;22.85;;
31306;SDS011;17935;51.120;13.132;2023-10-09T18:30:46;41.78;;;23.25;;
31306;SDS011;17935;51.120;13.132;2023-10-09T18:33:17;44.67;;;22.73;;
31306;SDS011;17935;51.120;13.132;2023-10-09T18:35:55;41.00;;;23.38;;
31306;SDS011;17935;51.120;13.132;2023-10-09T18:38:32;49.17;;;24.48;;
31306;SDS011;17935;51.120;13.132;2023-10-09T18:40:58;43.88;;;21.85;;
31306;SDS011;17935;51.120;13.132;2023-10-09T18:43:25;41.42;;;23.58;;
31306;SDS011;17935;51.120;13.132;2023-10-09T18:45:53;41.67;;;22.88;;
31306;SDS011;17935;51.120;13.132;2023-10-09T18:48:22;47.33;;;23.85;;
31306;SDS011;17935;51.120;13.132;2023-10-09T18:50:53;46.00;;;23.48;;
31306;SDS011;17935;51.120;13.132;2023-10-09T18:53:18;43.90;;;22.63;;
31306;SDS011;17935;51.120;13.132;2023-10-09T18:55:45;37.70;;;20.70;;
31306;SDS011;17935;51.120;13.132;2023-10-09T18:58:13;32.67;;;20.00;;
31306;SDS011;17935;51.120;13.132;2023-10-09T19:00:49;36.80;;;21.13;;
31306;SDS011;17935;51.120;13.132;2023-10-09T19:03:16;34.85;;;20.50;;
31306;SDS011;17935;51.120;13.132;2023-10-09T19:05:43;47.95;;;22.63;;
31306;SDS011;17935;51.120;13.132;2023-10-09T19:08:10;40.67;;;20.52;;
31306;SDS011;17935;51.120;13.132;2023-10-09T19:10:36;36.28;;;21.00;;
31306;SDS011;17935;51.120;13.132;2023-10-09T19:13:09;36.78;;;21.70;;
31306;SDS011;17935;51.120;13.132;2023-10-09T19:15:39;39.40;;;21.20;;
31306;SDS011;17935;51.120;13.132;2023-10-09T19:18:06;40.33;;;22.57;;
31306;SDS011;17935;51.120;13.132;2023-10-09T19:20:41;39.47;;;22.48;;
31306;SDS011;17935;51.120;13.132;2023-10-09T19:23:08;50.00;;;24.27;;
31306;SDS011;17935;51.120;13.132;2023-10-09T19:25:34;42.42;;;23.40;;
31306;SDS011;17935;51.120;13.132;2023-10-09T19:28:17;42.33;;;24.20;;
31306;SDS011;17935;51.120;13.132;2023-10-09T20:39:27;40.85;;;25.75;;
31306;SDS011;17935;51.120;13.132;2023-10-09T20:41:54;43.42;;;26.25;;
31306;SDS011;17935;51.120;13.132;2023-10-09T20:44:19;52.42;;;26.23;;
31306;SDS011;17935;51.120;13.132;2023-10-09T21:01:27;39.58;;;24.55;;
31306;SDS011;17935;51.120;13.132;2023-10-09T21:03:53;41.25;;;25.70;;
31306;SDS011;17935;51.120;13.132;2023-10-09T21:06:20;45.03;;;24.33;;
31306;SDS011;17935;51.120;13.132;2023-10-09T21:08:46;43.40;;;25.77;;
31306;SDS011;17935;51.120;13.132;2023-10-09T21:11:15;39.60;;;25.88;;
31306;SDS011;17935;51.120;13.132;2023-10-09T21:13:42;45.38;;;26.60;;
31306;SDS011;17935;51.120;13.132;2023-10-09T21:16:14;47.78;;;27.15;;
31306;SDS011;17935;51.120;13.132;2023-10-09T21:18:41;50.90;;;29.35;;
31306;SDS011;17935;51.120;13.132;2023-10-09T21:21:11;56.33;;;30.45;;
31306;SDS011;17935;51.120;13.132;2023-10-09T21:23:42;56.70;;;30.08;;
31306;SDS011;17935;51.120;13.132;2023-10-09T21:26:17;52.58;;;29.25;;
31306;SDS011;17935;51.120;13.132;2023-10-09T21:28:44;53.28;;;29.60;;
31306;SDS011;17935;51.120;13.132;2023-10-09T21:31:11;46.63;;;28.92;;
31306;SDS011;17935;51.120;13.132;2023-10-09T21:33:38;60.60;;;30.88;;
31306;SDS011;17935;51.120;13.132;2023-10-09T21:38:29;47.72;;;29.95;;
31306;SDS011;17935;51.120;13.132;2023-10-09T21:40:55;57.35;;;29.67;;
31306;SDS011;17935;51.120;13.132;2023-10-09T21:43:21;56.22;;;30.73;;
31306;SDS011;17935;51.120;13.132;2023-10-09T21:45:52;55.40;;;30.50;;
31306;SDS011;17935;51.120;13.132;2023-10-09T21:48:25;55.78;;;31.67;;
31306;SDS011;17935;51.120;13.132;2023-10-09T21:50:51;53.05;;;30.65;;
31306;SDS011;17935;51.120;13.132;2023-10-09T21:53:17;53.60;;;31.60;;
31306;SDS011;17935;51.120;13.132;2023-10-09T22:22:49;48.17;;;31.15;;
31306;SDS011;17935;51.120;13.132;2023-10-09T22:25:21;47.85;;;30.15;;
31306;SDS011;17935;51.120;13.132;2023-10-09T22:27:48;56.42;;;31.60;;
31306;SDS011;17935;51.120;13.132;2023-10-09T22:30:19;47.47;;;31.48;;
31306;SDS011;17935;51.120;13.132;2023-10-09T22:32:53;52.75;;;31.48;;
31306;SDS011;17935;51.120;13.132;2023-10-09T22:35:28;50.63;;;31.42;;
31306;SDS011;17935;51.120;13.132;2023-10-09T22:38:12;52.90;;;28.85;;
31306;SDS011;17935;51.120;13.132;2023-10-09T22:43:10;65.25;;;32.90;;
31306;SDS011;17935;51.120;13.132;2023-10-09T22:45:42;50.38;;;30.42;;
31306;SDS011;17935;51.120;13.132;2023-10-09T22:48:08;56.05;;;33.15;;
31306;SDS011;17935;51.120;13.132;2023-10-09T22:50:43;56.92;;;31.63;;
31306;SDS011;17935;51.120;13.132;2023-10-09T22:55:58;51.65;;;30.77;;
31306;SDS011;17935;51.120;13.132;2023-10-09T22:58:27;63.92;;;33.97;;
31306;SDS011;17935;51.120;13.132;2023-10-09T23:00:55;55.42;;;32.85;;
31306;SDS011;17935;51.120;13.132;2023-10-09T23:03:26;51.85;;;30.50;;
31306;SDS011;17935;51.120;13.132;2023-10-09T23:06:00;57.00;;;32.50;;
31306;SDS011;17935;51.120;13.132;2023-10-09T23:08:34;52.13;;;30.67;;
